createdAt,value
2023-04-19T00:12:53.187Z,10.8
2023-04-19T00:25:53.194Z,10.8
2023-04-19T00:38:53.201Z,10.8
2023-04-19T00:51:53.200Z,10.8
2023-04-19T01:04:53.216Z,10.9
2023-04-19T01:17:53.207Z,10.9
2023-04-19T01:30:53.233Z,10.8
2023-04-19T01:43:53.221Z,10.9
2023-04-19T01:56:53.204Z,11.2
2023-04-19T02:09:53.239Z,11.3
2023-04-19T02:22:53.239Z,11.3
2023-04-19T02:35:53.238Z,11.3
2023-04-19T02:48:53.258Z,11.1
2023-04-19T03:01:53.242Z,11.1
2023-04-19T03:14:53.258Z,10.9
2023-04-19T03:27:53.268Z,10.7
2023-04-19T03:40:54.164Z,10.9
2023-04-19T03:53:53.259Z,11.4
2023-04-19T04:06:53.254Z,11.1
2023-04-19T04:20:53.256Z,10.6
2023-04-19T04:34:53.289Z,10.1
2023-04-19T04:48:53.311Z,9.9
2023-04-19T05:02:53.349Z,9.7
2023-04-19T05:16:53.313Z,9.5
2023-04-19T05:30:53.296Z,9.9
2023-04-19T05:44:53.298Z,11.1
2023-04-19T05:58:53.303Z,13.2
2023-04-19T06:12:53.343Z,14.6
2023-04-19T06:26:53.435Z,15.0
2023-04-19T06:40:54.424Z,15.3
2023-04-19T06:54:53.321Z,15.3
2023-04-19T07:08:53.335Z,15.4
2023-04-19T07:22:53.311Z,15.3
2023-04-19T07:36:53.335Z,15.6
2023-04-19T07:50:53.333Z,16.2
2023-04-19T08:04:53.594Z,17.0
2023-04-19T08:18:53.345Z,17.9
2023-04-19T08:32:54.938Z,20.0
2023-04-19T08:46:53.422Z,19.7
2023-04-19T09:00:53.356Z,19.7
2023-04-19T09:15:01.533Z,19.6
2023-04-19T09:28:53.363Z,18.8
2023-04-19T09:56:55.478Z,18.6
2023-04-19T10:10:54.209Z,17.9
2023-04-19T10:24:53.387Z,17.8
2023-04-19T10:38:53.374Z,17.9
2023-04-19T10:52:53.378Z,18.0
2023-04-19T11:06:53.650Z,19.0
2023-04-19T11:20:53.384Z,19.0
2023-04-19T11:34:53.396Z,19.1
2023-04-19T11:48:53.571Z,19.7
2023-04-19T12:02:53.585Z,20.1
2023-04-19T12:16:53.456Z,20.2
2023-04-19T12:30:53.413Z,21.0
2023-04-19T12:44:53.401Z,20.6
2023-04-19T12:58:53.412Z,19.5
2023-04-19T13:12:53.435Z,21.4
2023-04-19T13:26:53.450Z,21.2
2023-04-19T13:40:53.498Z,21.0
2023-04-19T13:54:53.451Z,20.7
2023-04-19T14:08:53.454Z,21.2
2023-04-19T14:22:53.449Z,21.3
2023-04-19T14:36:53.467Z,20.2
2023-04-19T14:50:53.443Z,20.3
2023-04-19T15:04:53.534Z,20.4
2023-04-19T15:18:53.457Z,19.0
2023-04-19T15:32:53.535Z,17.6
2023-04-19T15:47:53.510Z,17.2
2023-04-19T16:01:53.474Z,16.8
2023-04-19T16:17:53.504Z,16.4
2023-04-19T16:33:53.475Z,15.9
2023-04-19T16:47:53.556Z,16.0
2023-04-19T17:14:53.503Z,15.6
2023-04-19T17:28:53.554Z,15.2
2023-04-19T17:42:53.553Z,15.1
2023-04-19T17:57:53.532Z,14.7
2023-04-19T18:42:53.588Z,11.9
2023-04-19T18:55:53.557Z,12.3
2023-04-19T19:08:53.563Z,12.6
2023-04-19T19:21:53.578Z,12.8
2023-04-19T19:34:56.120Z,13.1
2023-04-19T19:47:53.755Z,13.6
2023-04-19T20:00:55.427Z,13.5
2023-04-19T20:13:53.621Z,13.2
2023-04-19T20:26:53.597Z,13.0
2023-04-19T20:39:53.617Z,12.7
2023-04-19T20:52:53.628Z,12.8
2023-04-19T21:05:53.616Z,12.7
2023-04-19T21:18:53.614Z,12.5
2023-04-19T21:31:53.649Z,12.5
2023-04-19T21:44:53.628Z,12.7
2023-04-19T21:57:53.646Z,12.6
2023-04-19T22:10:54.652Z,12.5
2023-04-19T22:23:53.650Z,12.3
2023-04-19T22:36:53.650Z,12.4
2023-04-19T22:49:53.649Z,12.4
2023-04-19T23:02:53.735Z,12.5
2023-04-19T23:15:53.666Z,12.6
2023-04-19T23:28:53.657Z,12.5
2023-04-19T23:41:53.665Z,12.4
2023-04-19T23:54:53.654Z,12.4
